Stazioni METAR vicine

 

LIRQ - Firenze/Peretola, Italy
Distance from station: S 24km
Dati ricevuti: 25/09/2018 06:20
Sereno
Sereno
 Vento Da N-NE
Vento: N-NE 22 km/h
Temperatura: 17°C
P.to Rugiada: 3°C
Umidità: 39%
Barometro: 1027 hPa
Meteo: Sereno
Visibility: greater than 10 km
2018/09/25 04:20 LIRQ 250420Z 03012KT 360V070 CAVOK 17/03 Q1027
LIVC - Cimone Mountain, Italy
Distance from station: O-NO 43km
Dati ricevuti: 20/09/2018 15:55
NOT Current
Nebbia
Nebbia
 Vento Da E
Vento: E 19 km/h
Temperatura: 10°C
Temperatura Vento: 7°C
P.to Rugiada: 9°C
Umidità: 94%
Barometro: 1028 hPa
Meteo: Nebbia
Visibility: 0 km
2018/09/20 13:55 LIVC 201355Z 08010KT 0000 FG VV/// 10/09 Q1028 RMK MON INVIS VAL INVIS VIS MIN 0000
 
LIPE - Bologna/Borgo (a, Italy
Distance from station: N-NE 60km
Dati ricevuti: 25/09/2018 06:20
Sereno
Sereno
 Vento Da O
Vento: O 4 km/h
Temperatura: 10°C
P.to Rugiada: 6°C
Umidità: 76%
Barometro: 1030 hPa
Meteo: Sereno
Visibility: greater than 10 km
2018/09/25 04:20 LIPE 250420Z 26002KT CAVOK 10/06 Q1030
LIRP - Pisa (civ/It-Afb, Italy
Distance from station: O-SO 72km
Dati ricevuti: 25/09/2018 06:15
Sereno
Sereno
 Vento Da E-NE
Vento: E-NE 20 km/h
Temperatura: 18°C
P.to Rugiada: 2°C
Umidità: 34%
Barometro: 1026 hPa
Meteo: Sereno
Visibility: greater than 10 km
2018/09/25 04:15 LIRP 250415Z 06011KT CAVOK 18/02 Q1026 NOSIG
 
LIPK - Forli (civ/It-Af, Italy
Distance from station: E-NE 78km
Dati ricevuti: 24/09/2018 17:50
NOT Current
Poco nuvoloso
Poco nuvoloso
 Vento Da E
Vento: E 13 km/h
Temperatura: 22°C
P.to Rugiada: 14°C
Umidità: 61%
Barometro: 1021 hPa
Clouds: Poco nuvoloso
Visibility: 10 km
Cloud details: Poco nuvoloso 914 m
2018/09/24 15:50 LIPK 241550Z 09007KT 9999 FEW030 22/14 Q1021
LIQW - Sarzana/Luni, Italy
Distance from station: O 94km
Dati ricevuti: 24/09/2018 15:55
NOT Current
Poco nuvoloso
Poco nuvoloso
 Vento Da SO
Vento: SO 4 km/h
Temperatura: 29°C
Indice di Calore: 28°C
P.to Rugiada: 14°C
Umidità: 40%
Barometro: 1015 hPa
Clouds: Poco nuvoloso
Visibility: 10 km
Cloud details: Poco nuvoloso 762 m
2018/09/24 13:55 LIQW 241355Z 23002KT 9999 SCT025 29/14 Q1015
 
LIPC - Cervia (it-Afb), Italy
Distance from station: E-NE 96km
Dati ricevuti: 25/09/2018 05:55
Sereno
Sereno
 Vento Da E
Vento: E 28 km/h
Temperatura: 16°C
P.to Rugiada: 5°C
Umidità: 48%
Barometro: 1028 hPa
Meteo: Sereno
Visibility: greater than 10 km
2018/09/25 03:55 LIPC 250355Z 09015KT CAVOK 16/05 Q1028
LIPF - Ferrara (aut), Italy
Distance from station: N-NE 99km
Dati ricevuti: 24/09/2018 19:55
NOT Current
Sereno
Sereno
 Vento Da varies
Vento: varies 0 km/h
Temperatura: 19°C
P.to Rugiada: 11°C
Umidità: 60%
Barometro: 1023 hPa
Meteo: Sereno
Visibility: greater than 10 km
2018/09/24 17:55 LIPF 241755Z /////KT CAVOK 19/11 Q1023